Geraldton Airport
YGEL : rendu visible

Aérodrome :











RETROUVEZ-NOUS SUR...

 
LOGIN :

S'inscrire | Disclaimer

   EN    FR    IT 

 









Légende :    VFR   VFR Marginal   IFR   IFR Intensif   IFR Très Intensif
Visi : 
Plafond : 
>= 8 km
>= 3000ft
5 à 8 km
1000 à 3000 ft
1500m à 5 km
500 à 1000 ft
800 à 1500m
200 à 500 ft
< 800m
< 200 ft
Symboles :   Orages  Brouillard  Fortes neiges  Fortes précipitations  Vent > 20 kt






- Altitude de l'aérodrome : 121 ft
- Code IATA : GET


YGEL - Geraldton

DERNIER METAR :
  • 280500Z AUTO 25009KT 9999 // OVC013 26/21 Q1007 RF00.0/000.0

METARs EXPIRÉS :
  • 280430Z AUTO 25010KT 9999 // OVC013 25/21 Q1008 RF00.0/000.0
  • 280400Z AUTO 24011KT 9999 // OVC013 25/21 Q1008 RF00.0/000.0
  • 280330Z AUTO 25011KT 9999 // OVC013 25/21 Q1008 RF00.0/000.0
  • 280300Z AUTO 24009KT 9999 // OVC011 25/22 Q1008
  • 280230Z AUTO 24010KT 9999 // OVC009 25/22 Q1008 RF00.0/000.0

TAF AMD TAF YGEL
Valide du 28 à 03h jusqu'au 28 à 18h UTC


280326Z 2803/2818 24010KT 9999 BKN012
BECMG 2805/2807 23014KT 9999 SCT015
FM281200 22010KT 9999 SCT015 BKN020



MET'MAP, la Météo Aéronautique d'un coup d'oeil ! - Copyright ORBIFLY Décembre 2007 - Disclaimer

ORBIFLY MET'MAP TEAM :

Programmation & Développement : Alexandra Zaïnal
Sur une idée originale de : Baudouin d'Aumeries
Assistance à la programmation : Marc-Olivier Méhu
Soutien technique & logistique : Manuel Goepfert

Contact : metmap@orbifly.com




SOURCES & CREDITS :

   NOAA       Earth
Advisory